createdAt,value
2022-12-08T00:00:07.885Z,33.08
2022-12-08T00:02:34.820Z,39.85
2022-12-08T00:05:20.373Z,33.50
2022-12-08T00:08:06.140Z,37.30
2022-12-08T00:10:48.984Z,38.63
2022-12-08T00:13:16.673Z,40.80
2022-12-08T00:15:43.706Z,43.00
2022-12-08T00:18:10.573Z,34.58
2022-12-08T00:20:37.433Z,26.20
2022-12-08T00:23:04.589Z,23.75
2022-12-08T00:25:32.350Z,32.72
2022-12-08T00:27:59.163Z,33.92
2022-12-08T00:30:26.083Z,31.38
2022-12-08T00:32:53.010Z,29.27
2022-12-08T00:35:19.838Z,27.27
2022-12-08T00:37:46.953Z,28.15
2022-12-08T00:40:13.992Z,27.52
2022-12-08T00:42:40.802Z,32.88
2022-12-08T00:45:08.088Z,28.65
2022-12-08T00:47:35.031Z,29.63
2022-12-08T00:50:02.425Z,29.10
2022-12-08T00:52:29.645Z,30.25
2022-12-08T00:54:56.651Z,26.55
2022-12-08T00:57:23.589Z,24.80
2022-12-08T00:59:50.402Z,23.33
2022-12-08T01:02:17.221Z,21.95
2022-12-08T01:04:44.107Z,21.15
2022-12-08T01:07:11.028Z,22.63
2022-12-08T01:09:38.046Z,19.35
2022-12-08T01:12:05.782Z,20.80
2022-12-08T01:14:33.800Z,21.48
2022-12-08T01:17:01.065Z,22.70
2022-12-08T01:19:27.956Z,24.95
2022-12-08T01:21:55.151Z,24.60
2022-12-08T01:24:22.146Z,28.23
2022-12-08T01:26:50.480Z,29.42
2022-12-08T01:29:18.100Z,29.85
2022-12-08T01:31:45.281Z,23.73
2022-12-08T01:34:12.553Z,24.98
2022-12-08T01:36:39.663Z,27.48
2022-12-08T01:39:10.694Z,42.05
2022-12-08T01:41:38.795Z,61.63
2022-12-08T01:44:08.947Z,67.60
2022-12-08T01:46:38.974Z,53.58
2022-12-08T01:49:12.715Z,43.53
2022-12-08T01:51:44.154Z,34.40
2022-12-08T01:54:13.093Z,27.05
2022-12-08T01:57:04.657Z,26.40
2022-12-08T01:59:34.574Z,25.52
2022-12-08T02:02:01.720Z,22.25
2022-12-08T02:04:28.662Z,23.35
2022-12-08T02:06:55.943Z,21.73
2022-12-08T02:09:22.920Z,24.48
2022-12-08T02:11:51.416Z,25.08
2022-12-08T02:14:18.397Z,22.67
2022-12-08T02:16:54.320Z,24.20
2022-12-08T02:19:36.169Z,18.98
2022-12-08T02:22:11.820Z,19.95
2022-12-08T02:24:57.001Z,22.00
2022-12-08T02:27:37.504Z,22.05
2022-12-08T02:30:22.586Z,24.75
2022-12-08T02:33:09.854Z,26.60
2022-12-08T02:35:58.899Z,26.92
2022-12-08T02:38:55.777Z,22.83
2022-12-08T02:41:37.757Z,22.20
2022-12-08T02:44:27.053Z,21.05
2022-12-08T02:47:10.169Z,20.63
2022-12-08T02:49:37.217Z,22.48
2022-12-08T02:52:07.816Z,21.33
2022-12-08T02:54:36.585Z,26.63
2022-12-08T02:57:22.894Z,32.20
2022-12-08T03:00:06.686Z,30.20
2022-12-08T03:03:06.075Z,39.72
2022-12-08T03:05:58.183Z,35.47
2022-12-08T03:08:34.995Z,33.05
2022-12-08T03:11:09.829Z,28.58
2022-12-08T03:13:42.520Z,34.42
2022-12-08T03:16:14.302Z,35.55
2022-12-08T03:18:47.885Z,36.17
2022-12-08T03:21:16.683Z,34.83
2022-12-08T03:23:46.528Z,29.55
2022-12-08T03:26:23.221Z,30.15
2022-12-08T03:28:50.292Z,34.65
2022-12-08T03:31:20.037Z,29.83
2022-12-08T03:33:51.928Z,28.15
2022-12-08T03:36:19.785Z,27.75
2022-12-08T03:38:50.523Z,29.73
2022-12-08T03:41:20.140Z,25.70
2022-12-08T03:43:53.452Z,26.98
2022-12-08T03:48:48.454Z,27.30
2022-12-08T03:51:16.163Z,26.50
2022-12-08T03:53:43.532Z,27.88
2022-12-08T03:56:23.662Z,27.55
2022-12-08T03:58:50.739Z,26.90
2022-12-08T04:01:17.663Z,29.90
2022-12-08T04:03:44.564Z,31.33
2022-12-08T04:06:11.702Z,28.33
2022-12-08T04:08:38.918Z,32.92
2022-12-08T04:11:06.774Z,29.48
2022-12-08T04:13:38.567Z,36.50
2022-12-08T04:16:06.675Z,34.85
2022-12-08T04:18:34.370Z,33.83
2022-12-08T04:21:01.870Z,37.00
2022-12-08T04:23:28.656Z,35.80
2022-12-08T04:25:55.586Z,37.83
2022-12-08T04:28:22.551Z,32.03
2022-12-08T04:30:50.151Z,39.65
2022-12-08T04:33:17.666Z,32.03
2022-12-08T04:35:44.772Z,29.45
2022-12-08T04:38:11.678Z,30.20
2022-12-08T04:40:38.622Z,31.67
2022-12-08T04:43:05.671Z,32.03
2022-12-08T04:45:32.945Z,33.00
2022-12-08T04:48:01.114Z,32.83
2022-12-08T04:50:28.611Z,31.85
2022-12-08T04:52:55.515Z,32.40
2022-12-08T04:55:22.525Z,31.10
2022-12-08T04:57:49.415Z,33.95
2022-12-08T05:00:16.973Z,35.90
2022-12-08T05:02:43.857Z,34.42
2022-12-08T05:05:10.892Z,39.60
2022-12-08T05:07:37.983Z,37.63
2022-12-08T05:10:05.710Z,39.78
2022-12-08T05:12:33.404Z,39.00
2022-12-08T05:15:00.280Z,43.97
2022-12-08T05:17:27.060Z,37.58
2022-12-08T05:19:53.964Z,42.75
2022-12-08T05:22:20.786Z,44.80
2022-12-08T05:24:48.029Z,41.83
2022-12-08T05:27:15.385Z,39.67
2022-12-08T05:29:42.556Z,42.20
2022-12-08T05:32:09.657Z,52.10
2022-12-08T05:34:36.637Z,44.38
2022-12-08T05:37:03.519Z,50.00
2022-12-08T05:39:30.380Z,51.60
2022-12-08T05:41:57.293Z,49.97
2022-12-08T05:44:24.410Z,44.10
2022-12-08T05:46:51.561Z,48.30
2022-12-08T05:49:18.678Z,48.60
2022-12-08T05:51:45.519Z,50.33
2022-12-08T05:54:12.332Z,48.95
2022-12-08T05:56:39.265Z,47.60
2022-12-08T05:59:07.244Z,42.95
2022-12-08T06:01:34.125Z,41.53
2022-12-08T06:04:02.863Z,41.85
2022-12-08T06:06:31.073Z,49.80
2022-12-08T06:08:57.933Z,54.33
2022-12-08T06:11:28.133Z,38.65
2022-12-08T06:13:56.823Z,42.45
2022-12-08T06:16:25.210Z,50.03
2022-12-08T06:18:52.948Z,51.20
2022-12-08T06:21:20.269Z,55.15
2022-12-08T06:23:52.203Z,51.45
2022-12-08T06:26:19.767Z,46.33
2022-12-08T06:28:47.243Z,52.95
2022-12-08T06:31:17.769Z,51.90
2022-12-08T06:33:45.342Z,46.05
2022-12-08T06:36:14.602Z,51.05
2022-12-08T06:38:43.820Z,56.45
2022-12-08T06:41:12.229Z,52.63
2022-12-08T06:43:39.600Z,54.90
2022-12-08T06:46:08.602Z,55.83
2022-12-08T06:48:35.621Z,54.50
2022-12-08T06:51:15.138Z,48.85
2022-12-08T06:53:42.923Z,57.70
2022-12-08T06:56:11.477Z,53.50
2022-12-08T06:58:38.955Z,55.90
2022-12-08T07:01:11.799Z,51.85
2022-12-08T07:03:39.580Z,52.60
2022-12-08T07:06:06.961Z,54.67
2022-12-08T07:08:35.155Z,56.13
2022-12-08T07:11:14.195Z,52.53
2022-12-08T07:13:43.597Z,54.47
2022-12-08T07:16:12.359Z,57.53
2022-12-08T07:18:39.830Z,54.78
2022-12-08T07:21:11.974Z,59.28
2022-12-08T07:23:39.423Z,59.10
2022-12-08T07:26:08.522Z,69.95
2022-12-08T07:28:37.308Z,67.78
2022-12-08T07:31:05.785Z,66.22
2022-12-08T07:33:35.494Z,63.72
2022-12-08T07:36:05.155Z,66.63
2022-12-08T07:38:32.837Z,63.97
2022-12-08T07:41:02.164Z,64.75
2022-12-08T07:43:29.245Z,60.97
2022-12-08T07:45:56.130Z,66.82
2022-12-08T07:48:23.036Z,63.88
2022-12-08T07:50:50.525Z,63.70
2022-12-08T07:53:17.404Z,73.90
2022-12-08T07:55:44.952Z,71.63
2022-12-08T07:58:12.084Z,70.03
2022-12-08T08:00:39.045Z,60.50
2022-12-08T08:03:06.440Z,58.75
2022-12-08T08:05:33.579Z,58.67
2022-12-08T08:08:01.633Z,59.85
2022-12-08T08:10:28.628Z,55.65
2022-12-08T08:12:59.216Z,47.88
2022-12-08T08:15:26.288Z,51.00
2022-12-08T08:17:53.624Z,48.00
2022-12-08T08:20:21.326Z,47.58
2022-12-08T08:22:50.281Z,46.13
2022-12-08T08:25:19.003Z,42.45
2022-12-08T08:27:46.979Z,44.47
2022-12-08T08:30:20.019Z,41.47
2022-12-08T08:32:48.109Z,40.08
2022-12-08T08:35:15.100Z,44.38
2022-12-08T08:37:48.369Z,36.92
2022-12-08T08:40:16.273Z,44.45
2022-12-08T08:42:43.171Z,37.95
2022-12-08T08:45:10.462Z,45.17
2022-12-08T08:47:37.429Z,43.55
2022-12-08T08:50:04.920Z,48.40
2022-12-08T08:52:32.059Z,48.83
2022-12-08T08:54:58.979Z,56.20
2022-12-08T08:57:26.403Z,53.58
2022-12-08T08:59:54.049Z,60.45
2022-12-08T09:02:22.456Z,60.13
2022-12-08T09:04:49.611Z,60.70
2022-12-08T09:07:18.732Z,60.90
2022-12-08T09:09:45.690Z,60.08
2022-12-08T09:12:13.173Z,60.03
2022-12-08T09:14:40.533Z,55.90
2022-12-08T09:17:07.791Z,51.08
2022-12-08T09:19:35.219Z,52.35
2022-12-08T09:22:02.089Z,50.33
2022-12-08T09:24:29.189Z,47.95
2022-12-08T09:26:56.170Z,50.63
2022-12-08T09:29:23.229Z,44.88
2022-12-08T09:31:50.378Z,49.65
2022-12-08T09:34:17.559Z,46.35
2022-12-08T09:36:44.380Z,49.50
2022-12-08T09:39:11.221Z,48.25
2022-12-08T09:41:50.289Z,52.30
2022-12-08T09:44:44.652Z,45.83
2022-12-08T09:47:17.976Z,42.53
2022-12-08T09:50:02.376Z,40.25
2022-12-08T09:52:41.177Z,43.78
2022-12-08T09:55:25.361Z,36.22
2022-12-08T09:58:00.926Z,41.17
2022-12-08T10:00:27.801Z,36.80
2022-12-08T10:02:56.670Z,50.50
2022-12-08T10:05:25.922Z,45.50
2022-12-08T10:08:10.503Z,45.72
2022-12-08T10:10:48.519Z,41.97
2022-12-08T10:13:37.250Z,41.63
2022-12-08T10:16:24.247Z,43.78
2022-12-08T10:19:10.111Z,46.28
2022-12-08T10:21:37.451Z,43.85
2022-12-08T10:24:12.877Z,46.67
2022-12-08T10:26:40.381Z,45.30
2022-12-08T10:29:12.639Z,45.45
2022-12-08T10:31:39.679Z,46.58
2022-12-08T10:34:23.356Z,43.78
2022-12-08T10:36:52.137Z,53.80
2022-12-08T10:39:34.349Z,43.03
2022-12-08T10:42:17.625Z,43.42
2022-12-08T10:45:13.256Z,43.15
2022-12-08T10:47:45.098Z,46.38
2022-12-08T10:50:20.854Z,50.17
2022-12-08T10:53:00.975Z,44.97
2022-12-08T10:55:29.544Z,47.15
2022-12-08T10:57:56.631Z,58.10
2022-12-08T11:00:28.402Z,56.80
2022-12-08T11:03:05.427Z,51.47
2022-12-08T11:05:35.739Z,53.10
2022-12-08T11:08:05.084Z,56.55
2022-12-08T11:10:42.546Z,59.50
2022-12-08T11:13:22.981Z,61.28
2022-12-08T11:15:52.285Z,58.47
2022-12-08T11:18:30.823Z,60.95
2022-12-08T11:21:18.249Z,59.75
2022-12-08T11:23:50.143Z,54.17
2022-12-08T11:26:35.823Z,50.75
2022-12-08T11:29:02.785Z,52.80
2022-12-08T11:31:35.288Z,56.70
2022-12-08T11:34:03.552Z,61.38
2022-12-08T11:36:33.858Z,60.97
2022-12-08T11:39:04.703Z,61.63
2022-12-08T11:41:39.824Z,65.20
2022-12-08T11:44:21.861Z,57.63
2022-12-08T11:46:56.679Z,56.75
2022-12-08T11:49:34.814Z,59.17
2022-12-08T11:52:12.429Z,61.38
2022-12-08T11:55:18.323Z,61.67
2022-12-08T11:57:46.148Z,61.38
2022-12-08T12:00:16.720Z,59.67
2022-12-08T12:02:51.997Z,60.25
2022-12-08T12:06:05.360Z,62.30
2022-12-08T12:09:07.013Z,60.97
2022-12-08T12:11:58.293Z,62.15
2022-12-08T12:14:59.115Z,63.60
2022-12-08T12:17:44.217Z,62.05
2022-12-08T12:20:29.316Z,67.55
2022-12-08T12:23:03.831Z,59.58
2022-12-08T12:25:32.617Z,65.93
2022-12-08T12:28:05.437Z,63.55
2022-12-08T12:30:54.251Z,86.90
2022-12-08T12:33:22.868Z,86.30
2022-12-08T12:35:49.962Z,88.05
2022-12-08T12:38:57.854Z,87.75
2022-12-08T12:41:43.282Z,85.30
2022-12-08T12:44:10.312Z,77.53
2022-12-08T12:46:37.328Z,76.80
2022-12-08T12:49:41.079Z,75.55
2022-12-08T12:52:16.850Z,83.93
2022-12-08T12:54:50.065Z,89.47
2022-12-08T12:57:19.721Z,91.28
2022-12-08T12:59:55.474Z,93.07
2022-12-08T13:02:33.322Z,86.97
2022-12-08T13:05:21.282Z,87.05
2022-12-08T13:08:02.319Z,82.50
2022-12-08T13:10:38.851Z,78.38
2022-12-08T13:13:18.252Z,85.00
2022-12-08T13:15:54.112Z,87.55
2022-12-08T13:18:28.854Z,84.32
2022-12-08T13:21:01.277Z,88.85
2022-12-08T13:23:40.174Z,99.75
2022-12-08T13:26:23.833Z,107.32
2022-12-08T13:29:26.145Z,104.47
2022-12-08T13:31:58.301Z,104.75
2022-12-08T13:34:30.394Z,104.20
2022-12-08T13:37:23.272Z,96.13
2022-12-08T13:39:52.021Z,94.03
2022-12-08T13:42:27.916Z,84.68
2022-12-08T13:48:36.717Z,80.22
2022-12-08T13:53:22.357Z,87.78
2022-12-08T13:57:11.514Z,83.50
2022-12-08T13:59:45.471Z,78.53
2022-12-08T14:02:33.249Z,81.03
2022-12-08T14:05:18.547Z,75.60
2022-12-08T14:07:52.080Z,74.10
2022-12-08T14:10:32.465Z,67.57
2022-12-08T14:13:06.491Z,66.90
2022-12-08T14:15:38.140Z,76.93
2022-12-08T14:18:07.024Z,66.55
2022-12-08T14:21:12.078Z,65.50
2022-12-08T14:23:25.463Z,60.05
2022-12-08T14:25:52.739Z,61.20
2022-12-08T14:28:20.343Z,68.82
2022-12-08T14:30:49.956Z,59.70
2022-12-08T14:33:18.726Z,71.65
2022-12-08T14:35:54.499Z,64.88
2022-12-08T14:38:23.043Z,78.83
2022-12-08T14:41:01.874Z,73.47
2022-12-08T14:43:30.491Z,68.20
2022-12-08T14:46:21.537Z,67.28
2022-12-08T14:48:48.591Z,72.85
2022-12-08T14:51:26.694Z,65.72
2022-12-08T14:56:53.528Z,66.65
2022-12-08T14:59:23.139Z,67.20
2022-12-08T15:01:52.974Z,67.20
2022-12-08T15:04:25.768Z,65.80
2022-12-08T15:07:14.908Z,64.32
2022-12-08T15:09:44.690Z,68.47
2022-12-08T15:12:14.521Z,64.07
2022-12-08T15:14:56.752Z,67.90
2022-12-08T15:17:49.269Z,70.00
2022-12-08T15:20:28.784Z,65.75
2022-12-08T15:23:00.209Z,72.88
2022-12-08T15:25:27.029Z,70.05
2022-12-08T15:27:54.758Z,63.00
2022-12-08T15:30:21.652Z,58.05
2022-12-08T15:32:52.371Z,62.97
2022-12-08T15:35:19.373Z,56.10
2022-12-08T15:37:46.709Z,68.22
2022-12-08T15:40:21.904Z,58.50
2022-12-08T15:42:49.638Z,61.65
2022-12-08T15:45:17.423Z,64.72
2022-12-08T15:47:45.609Z,64.68
2022-12-08T15:50:18.402Z,60.42
2022-12-08T15:52:45.501Z,56.05
2022-12-08T15:55:18.480Z,59.63
2022-12-08T16:00:54.518Z,65.00
2022-12-08T16:09:19.473Z,54.40
2022-12-08T16:12:07.609Z,59.08
2022-12-08T16:17:22.556Z,60.20
2022-12-08T16:19:49.839Z,65.45
2022-12-08T16:25:23.194Z,58.72
2022-12-08T16:28:02.934Z,54.33
2022-12-08T16:30:32.053Z,49.25
2022-12-08T16:32:59.641Z,52.70
2022-12-08T16:35:26.524Z,47.95
2022-12-08T16:37:53.646Z,46.40
2022-12-08T16:40:20.611Z,48.17
2022-12-08T16:42:50.181Z,45.72
2022-12-08T16:45:23.508Z,52.05
2022-12-08T16:47:53.489Z,51.13
2022-12-08T16:50:23.615Z,46.05
2022-12-08T16:53:00.022Z,48.45
2022-12-08T16:55:27.510Z,62.90
2022-12-08T16:57:54.774Z,67.05
2022-12-08T17:00:24.918Z,75.32
2022-12-08T17:02:52.511Z,83.22
2022-12-08T17:05:23.328Z,81.82
2022-12-08T17:07:51.924Z,76.45
2022-12-08T17:10:23.112Z,90.82
2022-12-08T17:12:52.080Z,78.93
2022-12-08T17:15:21.804Z,81.55
2022-12-08T17:17:48.647Z,87.63
2022-12-08T17:20:22.327Z,95.93
2022-12-08T17:22:49.807Z,125.55
2022-12-08T17:25:16.778Z,147.38
2022-12-08T17:27:43.708Z,130.60
2022-12-08T17:30:15.793Z,124.07
2022-12-08T17:32:43.282Z,112.90
2022-12-08T17:35:10.731Z,116.47
2022-12-08T17:37:38.736Z,124.72
2022-12-08T17:40:06.719Z,138.18
2022-12-08T17:42:33.715Z,129.70
2022-12-08T17:45:00.571Z,121.82
2022-12-08T17:47:27.421Z,129.88
2022-12-08T17:49:56.162Z,115.55
2022-12-08T17:52:23.105Z,107.97
2022-12-08T17:54:50.097Z,116.35
2022-12-08T17:57:16.966Z,96.15
2022-12-08T17:59:43.858Z,106.90
2022-12-08T18:02:12.215Z,108.00
2022-12-08T18:04:39.177Z,99.47
2022-12-08T18:07:21.359Z,111.25
2022-12-08T18:09:55.497Z,132.20
2022-12-08T18:12:26.928Z,134.95
2022-12-08T18:14:53.952Z,119.50
2022-12-08T18:17:21.155Z,116.15
2022-12-08T18:19:48.042Z,123.85
2022-12-08T18:22:16.196Z,134.20
2022-12-08T18:24:44.685Z,125.30
2022-12-08T18:27:11.769Z,139.23
2022-12-08T18:29:38.912Z,140.35
2022-12-08T18:32:06.376Z,140.63
2022-12-08T18:34:34.200Z,131.77
2022-12-08T18:37:01.437Z,120.53
2022-12-08T18:39:31.082Z,124.88
2022-12-08T18:44:35.809Z,152.70
2022-12-08T18:47:02.839Z,138.13
2022-12-08T18:49:29.615Z,139.95
2022-12-08T18:51:56.917Z,135.85
2022-12-08T18:54:37.228Z,133.80
2022-12-08T18:57:10.974Z,123.75
2022-12-08T18:59:38.129Z,124.20
2022-12-08T19:02:05.103Z,109.28
2022-12-08T19:04:37.227Z,106.78
2022-12-08T19:07:06.374Z,117.45
2022-12-08T19:09:33.553Z,107.88
2022-12-08T19:12:00.462Z,108.13
2022-12-08T19:14:30.374Z,110.35
2022-12-08T19:16:58.456Z,104.40
2022-12-08T19:19:26.634Z,114.85
2022-12-08T19:21:54.015Z,119.05
2022-12-08T19:24:21.413Z,115.75
2022-12-08T19:29:24.242Z,126.65
2022-12-08T19:31:51.539Z,117.82
2022-12-08T19:34:19.064Z,106.55
2022-12-08T19:36:46.280Z,109.68
2022-12-08T19:39:40.369Z,105.10
2022-12-08T19:42:37.687Z,103.15
2022-12-08T19:45:12.630Z,128.65
2022-12-08T19:47:40.353Z,151.82
2022-12-08T19:50:27.744Z,163.00
2022-12-08T19:52:56.471Z,174.82
2022-12-08T19:55:24.827Z,182.88
2022-12-08T19:57:53.160Z,178.00
2022-12-08T20:00:21.791Z,182.15
2022-12-08T20:02:48.880Z,169.02
2022-12-08T20:05:16.602Z,168.73
2022-12-08T20:07:44.114Z,155.75
2022-12-08T20:10:23.300Z,170.65
2022-12-08T20:12:50.487Z,170.15
2022-12-08T20:15:17.780Z,162.23
2022-12-08T20:17:44.852Z,166.68
2022-12-08T20:20:13.349Z,151.68
2022-12-08T20:22:42.055Z,163.20
2022-12-08T20:25:13.038Z,150.90
2022-12-08T20:27:40.569Z,155.85
2022-12-08T20:30:13.338Z,151.43
2022-12-08T20:32:43.717Z,151.00
2022-12-08T20:35:10.575Z,155.45
2022-12-08T20:37:38.072Z,168.98
2022-12-08T20:40:06.753Z,181.73
2022-12-08T20:42:33.746Z,176.43
2022-12-08T20:45:00.955Z,186.90
2022-12-08T20:47:28.104Z,178.27
2022-12-08T20:49:55.139Z,171.02
2022-12-08T20:52:22.471Z,167.88
2022-12-08T20:54:49.972Z,169.40
2022-12-08T20:57:16.858Z,167.00
2022-12-08T20:59:43.917Z,166.32
2022-12-08T21:02:11.859Z,183.13
2022-12-08T21:04:39.129Z,152.15
2022-12-08T21:07:06.430Z,159.75
2022-12-08T21:09:33.526Z,155.30
2022-12-08T21:12:00.506Z,157.98
2022-12-08T21:14:27.615Z,154.32
2022-12-08T21:16:55.149Z,141.48
2022-12-08T21:19:22.786Z,128.93
2022-12-08T21:21:51.262Z,119.72
2022-12-08T21:24:19.370Z,111.85
2022-12-08T21:26:46.506Z,119.70
2022-12-08T21:29:13.749Z,105.47
2022-12-08T21:31:41.222Z,91.57
2022-12-08T21:34:08.609Z,95.30
2022-12-08T21:36:35.788Z,89.72
2022-12-08T21:39:03.095Z,76.03
2022-12-08T21:41:49.023Z,84.03
2022-12-08T21:44:20.254Z,77.00
2022-12-08T21:46:47.475Z,76.70
2022-12-08T21:49:14.523Z,78.22
2022-12-08T21:51:42.523Z,80.40
2022-12-08T21:54:18.306Z,72.00
2022-12-08T21:56:46.907Z,79.78
2022-12-08T21:59:13.887Z,80.13
2022-12-08T22:01:43.565Z,83.95
2022-12-08T22:04:12.540Z,81.30
2022-12-08T22:06:39.987Z,82.60
2022-12-08T22:09:07.470Z,86.03
2022-12-08T22:11:34.752Z,87.70
2022-12-08T22:14:01.974Z,87.30
2022-12-08T22:16:28.973Z,87.68
2022-12-08T22:18:56.110Z,99.25
2022-12-08T22:21:23.524Z,114.57
2022-12-08T22:23:50.477Z,108.05
2022-12-08T22:26:17.545Z,95.93
2022-12-08T22:28:44.909Z,89.43
2022-12-08T22:33:32.868Z,96.10
2022-12-08T22:36:08.141Z,83.75
2022-12-08T22:38:37.482Z,83.38
2022-12-08T22:41:06.102Z,78.10
2022-12-08T22:43:34.036Z,79.25
2022-12-08T22:46:01.362Z,77.20
2022-12-08T22:48:28.393Z,76.80
2022-12-08T22:51:00.438Z,81.70
2022-12-08T22:53:27.986Z,76.10
2022-12-08T22:55:55.247Z,77.38
2022-12-08T22:58:23.138Z,74.00
2022-12-08T23:00:50.675Z,78.10
2022-12-08T23:03:18.038Z,81.10
2022-12-08T23:05:45.265Z,77.43
2022-12-08T23:08:15.986Z,80.32
2022-12-08T23:10:44.344Z,79.68
2022-12-08T23:13:12.532Z,76.03
2022-12-08T23:15:40.915Z,74.00
2022-12-08T23:18:08.587Z,76.90
2022-12-08T23:20:36.143Z,89.60
2022-12-08T23:23:03.208Z,76.32
2022-12-08T23:25:30.369Z,84.72
2022-12-08T23:27:57.465Z,92.68
2022-12-08T23:30:26.155Z,85.20
2022-12-08T23:32:56.786Z,82.70
2022-12-08T23:35:23.854Z,76.00
2022-12-08T23:37:50.943Z,74.35
2022-12-08T23:40:17.933Z,75.88
2022-12-08T23:42:44.844Z,69.43
2022-12-08T23:45:12.126Z,70.78
2022-12-08T23:47:39.016Z,70.75
2022-12-08T23:50:07.763Z,73.32
2022-12-08T23:52:35.202Z,69.43
2022-12-08T23:55:02.261Z,68.50
2022-12-08T23:57:29.137Z,69.20
2022-12-08T23:59:56.233Z,73.97
